Time;durP1;ratioP1;P1;durP2;ratioP2;P2;SDS_P1;SDS_P2;PMS_P1;PMS_P2;Temp;Humidity;BMP_temperature;BMP_pressure;BME280_temperature;BME280_humidity;BME280_pressure;Samples;Min_cycle;Max_cycle;Signal;HPM_P1;HPM_P2
2023/08/25 00:01:57;;;;;;;4.60;1.90;;;;;;;20.19;100.00;95624.09;4972522;28;24437;-77
2023/08/25 00:04:23;;;;;;;3.78;2.00;;;;;;;20.08;100.00;95634.88;4972422;28;24416;-77
2023/08/25 00:06:51;;;;;;;5.72;2.50;;;;;;;19.95;100.00;95633.53;4972569;28;24433;-77
2023/08/25 00:09:17;;;;;;;4.07;2.08;;;;;;;20.03;100.00;95632.75;4978351;28;24452;-77
2023/08/25 00:11:44;;;;;;;8.60;2.15;;;;;;;20.03;100.00;95630.13;4991912;28;24424;-77
2023/08/25 00:14:10;;;;;;;4.35;2.20;;;;;;;19.97;100.00;95626.28;4991906;28;24746;-77
2023/08/25 00:16:37;;;;;;;3.88;2.17;;;;;;;20.13;100.00;95632.59;4981483;28;24437;-77
2023/08/25 00:19:03;;;;;;;4.00;2.28;;;;;;;20.13;100.00;95636.03;4975162;28;24441;-77
2023/08/25 00:21:30;;;;;;;3.97;2.00;;;;;;;20.14;100.00;95631.63;4987127;28;24498;-77
2023/08/25 00:23:58;;;;;;;2.47;1.80;;;;;;;20.09;100.00;95626.81;4991547;28;24983;-77
2023/08/25 00:26:25;;;;;;;3.10;2.00;;;;;;;20.11;100.00;95622.25;4991305;28;24417;-77
2023/08/25 00:28:51;;;;;;;3.15;1.98;;;;;;;20.05;100.00;95615.81;4991336;28;24429;-77
2023/08/25 00:31:18;;;;;;;2.33;1.90;;;;;;;20.00;100.00;95602.31;4982325;28;24532;-77
2023/08/25 00:33:49;;;;;;;2.92;2.20;;;;;;;19.94;100.00;95610.84;4972268;28;24422;-77
2023/08/25 00:36:15;;;;;;;5.28;2.10;;;;;;;19.97;100.00;95600.00;4971921;28;24549;-77
2023/08/25 00:38:42;;;;;;;2.80;1.95;;;;;;;19.94;100.00;95597.69;4971867;28;24987;-77
2023/08/25 00:41:10;;;;;;;3.97;2.10;;;;;;;19.87;100.00;95598.47;4978496;28;24440;-77
2023/08/25 00:43:38;;;;;;;5.13;2.30;;;;;;;19.86;100.00;95591.59;4991135;28;24448;-77
2023/08/25 00:46:04;;;;;;;4.20;2.30;;;;;;;19.90;100.00;95590.28;4990811;28;24789;-77
2023/08/25 00:48:31;;;;;;;4.38;2.25;;;;;;;19.82;100.00;95585.81;4990489;28;24485;-78
2023/08/25 00:50:58;;;;;;;3.38;2.00;;;;;;;19.79;100.00;95586.13;4987257;28;24437;-77
2023/08/25 00:53:25;;;;;;;5.57;2.00;;;;;;;19.77;100.00;95582.84;4972607;28;24421;-78
2023/08/25 00:55:54;;;;;;;4.07;2.05;;;;;;;19.65;100.00;95584.91;4988311;28;24440;-78
2023/08/25 00:58:22;;;;;;;2.90;1.73;;;;;;;19.62;100.00;95587.03;4992581;28;24423;-78
2023/08/25 01:00:49;;;;;;;4.32;1.92;;;;;;;19.76;100.00;95575.94;4988110;28;24441;-78
2023/08/25 01:03:16;;;;;;;4.20;2.10;;;;;;;19.78;100.00;95587.13;4973738;28;24896;-78
2023/08/25 01:05:43;;;;;;;3.63;1.70;;;;;;;19.82;100.00;95583.19;4973231;28;24790;-77
2023/08/25 01:08:09;;;;;;;3.55;2.20;;;;;;;19.68;100.00;95576.72;4973028;28;24422;-77
2023/08/25 01:10:45;;;;;;;3.73;2.13;;;;;;;19.65;100.00;95584.91;4975030;28;24429;-78
2023/08/25 01:13:17;;;;;;;3.47;2.25;;;;;;;19.67;100.00;95580.34;4992522;28;24910;-78
2023/08/25 01:15:50;;;;;;;3.22;1.85;;;;;;;19.69;100.00;95588.03;4991668;28;24959;-77
2023/08/25 01:18:22;;;;;;;2.42;2.05;;;;;;;19.70;100.00;95590.53;4972692;28;24438;-77
2023/08/25 01:20:49;;;;;;;3.63;1.92;;;;;;;19.66;100.00;95588.38;4972453;28;24533;-78
2023/08/25 01:23:20;;;;;;;6.22;2.17;;;;;;;19.71;100.00;95586.91;4973119;28;24449;-78
2023/08/25 01:25:49;;;;;;;4.05;1.90;;;;;;;19.68;100.00;95586.41;4971684;28;24992;-78
2023/08/25 01:28:15;;;;;;;2.88;2.10;;;;;;;19.73;100.00;95587.59;4972696;28;24475;-78
2023/08/25 01:30:44;;;;;;;3.08;1.98;;;;;;;19.74;100.00;95581.34;4972701;28;25203;-77
2023/08/25 01:33:10;;;;;;;3.28;2.17;;;;;;;19.75;100.00;95588.25;4972603;28;24516;-78
2023/08/25 01:35:51;;;;;;;5.80;2.00;;;;;;;19.76;100.00;95592.53;4971946;28;24524;-77
2023/08/25 01:38:24;;;;;;;3.53;2.17;;;;;;;19.60;100.00;95600.28;4971895;28;24413;-77
2023/08/25 01:40:57;;;;;;;2.97;2.13;;;;;;;19.65;100.00;95591.97;4974664;28;25007;-77
2023/08/25 01:43:28;;;;;;;4.30;2.10;;;;;;;19.66;100.00;95591.84;4991276;28;24441;-78
2023/08/25 01:45:56;;;;;;;2.43;1.80;;;;;;;19.67;100.00;95596.09;4973100;28;24809;-77
2023/08/25 01:48:24;;;;;;;4.28;2.35;;;;;;;19.60;100.00;95595.03;4971967;28;24426;-78
2023/08/25 01:50:51;;;;;;;2.70;2.15;;;;;;;19.47;100.00;95603.34;4974744;28;24462;-77
2023/08/25 01:53:18;;;;;;;3.97;2.03;;;;;;;19.32;100.00;95602.28;4991340;28;24976;-77
2023/08/25 01:55:44;;;;;;;4.95;2.13;;;;;;;19.23;100.00;95590.88;4991019;28;24421;-77
2023/08/25 01:58:14;;;;;;;3.70;1.98;;;;;;;19.29;100.00;95587.66;4990887;28;24424;-78
2023/08/25 02:00:41;;;;;;;3.83;2.13;;;;;;;19.38;100.00;95593.75;4993870;28;24428;-77
2023/08/25 02:03:08;;;;;;;4.83;1.97;;;;;;;19.28;100.00;95587.78;4994950;28;24549;-77
2023/08/25 02:05:34;;;;;;;3.20;2.28;;;;;;;19.20;100.00;95592.97;5013033;28;24456;-77
2023/08/25 02:08:01;;;;;;;8.00;2.17;;;;;;;19.06;100.00;95591.75;5014263;28;24971;-77
2023/08/25 02:10:27;;;;;;;5.15;2.10;;;;;;;19.06;100.00;95589.97;5008343;28;24437;-78
2023/08/25 02:12:54;;;;;;;3.83;2.00;;;;;;;19.13;100.00;95584.88;4993536;28;24436;-78
2023/08/25 02:15:21;;;;;;;2.35;1.83;;;;;;;19.21;100.00;95584.97;4995506;28;24421;-78
2023/08/25 02:17:48;;;;;;;3.13;2.10;;;;;;;19.26;100.00;95584.50;4992770;28;24480;-78
2023/08/25 02:20:14;;;;;;;5.68;2.13;;;;;;;19.22;100.00;95583.97;4995110;28;24436;-78
2023/08/25 02:22:41;;;;;;;2.97;1.98;;;;;;;19.16;100.00;95591.66;4994147;28;24459;-78
2023/08/25 02:25:08;;;;;;;6.70;2.37;;;;;;;19.10;100.00;95590.47;4995088;28;24439;-77
2023/08/25 02:27:35;;;;;;;4.60;2.28;;;;;;;19.03;100.00;95582.38;4993559;28;24495;-77
2023/08/25 02:30:02;;;;;;;3.03;1.98;;;;;;;18.99;100.00;95583.66;4994102;28;24427;-77
2023/08/25 02:32:30;;;;;;;3.17;2.28;;;;;;;18.95;100.00;95587.56;4982375;28;24984;-77
2023/08/25 02:34:56;;;;;;;5.30;2.25;;;;;;;18.91;100.00;95574.88;4974223;28;24424;-77
2023/08/25 02:37:23;;;;;;;4.03;2.30;;;;;;;18.94;100.00;95575.41;4973894;28;24430;-77
2023/08/25 02:39:49;;;;;;;6.22;2.13;;;;;;;19.02;100.00;95572.88;4974109;28;24426;-77
2023/08/25 02:42:16;;;;;;;3.03;2.22;;;;;;;18.96;100.00;95565.59;4982349;28;24452;-77
2023/08/25 02:44:42;;;;;;;4.18;2.15;;;;;;;18.98;100.00;95560.19;4985160;28;24448;-77
2023/08/25 02:47:09;;;;;;;2.80;2.20;;;;;;;19.01;100.00;95558.06;4993212;28;24547;-77
2023/08/25 02:49:38;;;;;;;2.70;1.90;;;;;;;19.04;100.00;95559.56;4993180;28;24424;-77
2023/08/25 02:52:05;;;;;;;6.85;2.42;;;;;;;19.03;100.00;95556.13;4981859;28;24438;-77
2023/08/25 02:54:31;;;;;;;4.57;2.27;;;;;;;19.08;100.00;95553.84;4973832;28;24502;-77
2023/08/25 02:56:58;;;;;;;3.47;2.13;;;;;;;19.16;100.00;95560.16;4973622;28;24797;-77
2023/08/25 02:59:24;;;;;;;2.83;2.15;;;;;;;19.13;100.00;95566.50;4973527;28;24430;-77
2023/08/25 03:01:51;;;;;;;5.17;2.20;;;;;;;19.11;100.00;95558.00;4974540;28;24471;-77
2023/08/25 03:04:18;;;;;;;5.20;2.38;;;;;;;19.12;100.00;95556.19;4973951;28;24520;-77
2023/08/25 03:06:47;;;;;;;3.95;2.10;;;;;;;19.18;100.00;95545.06;4973222;28;25073;-77
2023/08/25 03:09:14;;;;;;;2.75;2.25;;;;;;;19.23;100.00;95534.91;4973674;28;24432;-77
2023/08/25 03:11:40;;;;;;;3.38;2.17;;;;;;;19.21;100.00;95540.34;4991021;28;24769;-77
2023/08/25 03:14:07;;;;;;;3.42;2.00;;;;;;;19.15;100.00;95527.81;4992734;28;24421;-77
2023/08/25 03:16:33;;;;;;;5.85;2.10;;;;;;;19.16;100.00;95526.84;4992810;28;24437;-77
2023/08/25 03:19:00;;;;;;;4.03;2.22;;;;;;;19.18;100.00;95521.44;4992856;28;24515;-77
2023/08/25 03:21:26;;;;;;;3.50;2.03;;;;;;;19.22;100.00;95525.41;4991101;28;24444;-77
2023/08/25 03:23:54;;;;;;;3.38;2.13;;;;;;;19.17;100.00;95528.50;4992341;28;24851;-77
2023/08/25 03:26:20;;;;;;;2.27;1.80;;;;;;;19.20;100.00;95522.91;4992373;28;24432;-77
2023/08/25 03:28:47;;;;;;;6.20;2.33;;;;;;;19.22;100.00;95517.53;4992514;28;24436;-77
2023/08/25 03:31:13;;;;;;;3.75;2.20;;;;;;;19.21;100.00;95523.78;4992041;28;24810;-77
2023/08/25 03:33:40;;;;;;;3.73;1.90;;;;;;;19.19;100.00;95520.47;4992678;28;24429;-77
2023/08/25 03:36:06;;;;;;;3.38;2.10;;;;;;;19.20;100.00;95514.22;4992213;28;24461;-77
2023/08/25 03:38:33;;;;;;;3.10;1.98;;;;;;;19.22;100.00;95502.59;4992367;28;24414;-77
2023/08/25 03:41:01;;;;;;;3.33;1.77;;;;;;;19.19;100.00;95505.53;4980652;28;25019;-77
2023/08/25 03:43:28;;;;;;;3.65;1.70;;;;;;;19.10;100.00;95506.47;4988942;28;24453;-77
2023/08/25 03:45:54;;;;;;;2.65;1.85;;;;;;;19.03;100.00;95505.44;4975804;28;24434;-77
2023/08/25 03:48:21;;;;;;;3.25;1.95;;;;;;;18.99;100.00;95502.31;4972721;28;24414;-77
2023/08/25 03:50:47;;;;;;;3.92;2.20;;;;;;;18.97;100.00;95493.75;4972716;28;24418;-77
2023/08/25 03:53:14;;;;;;;3.67;1.92;;;;;;;19.03;100.00;95490.53;4972883;28;24456;-77
2023/08/25 03:55:41;;;;;;;2.97;2.05;;;;;;;19.09;100.00;95483.81;4972489;28;24426;-77
2023/08/25 03:58:08;;;;;;;4.53;2.20;;;;;;;18.99;100.00;95489.19;4972526;28;24524;-77
2023/08/25 04:00:35;;;;;;;4.80;2.20;;;;;;;18.86;100.00;95491.38;4976487;28;24482;-77
2023/08/25 04:03:03;;;;;;;4.27;2.00;;;;;;;18.95;100.00;95482.59;4985224;28;24456;-77
2023/08/25 04:05:30;;;;;;;6.40;2.10;;;;;;;18.96;100.00;95479.00;4991759;28;25109;-77
2023/08/25 04:07:56;;;;;;;3.00;2.00;;;;;;;18.93;100.00;95474.03;4990910;28;24961;-77
2023/08/25 04:10:24;;;;;;;4.63;2.45;;;;;;;18.99;100.00;95476.06;4991835;28;24424;-77
2023/08/25 04:12:51;;;;;;;4.57;1.90;;;;;;;18.93;100.00;95475.84;4972781;28;24434;-77
2023/08/25 04:15:21;;;;;;;5.70;2.10;;;;;;;18.76;100.00;95473.13;4984857;28;25048;-77
2023/08/25 04:17:47;;;;;;;3.15;2.17;;;;;;;18.78;100.00;95467.72;4991761;28;24421;-77
2023/08/25 04:20:14;;;;;;;5.10;2.30;;;;;;;18.69;100.00;95468.59;4991833;28;24992;-77
2023/08/25 04:22:41;;;;;;;3.45;2.20;;;;;;;18.65;100.00;95470.72;4987733;28;24491;-77
2023/08/25 04:25:08;;;;;;;6.72;2.50;;;;;;;18.62;100.00;95471.03;4978901;28;24481;-79
2023/08/25 04:27:34;;;;;;;4.78;2.25;;;;;;;18.61;100.00;95469.38;4971930;28;24615;-77
2023/08/25 04:30:01;;;;;;;6.05;2.47;;;;;;;18.62;100.00;95465.78;4979883;28;24445;-76
2023/08/25 04:32:29;;;;;;;4.80;2.45;;;;;;;18.61;100.00;95458.88;4979950;28;24818;-77
2023/08/25 04:34:56;;;;;;;5.18;2.28;;;;;;;18.56;100.00;95446.22;4971857;28;24483;-76
2023/08/25 04:37:22;;;;;;;3.17;1.80;;;;;;;18.61;100.00;95443.97;4981646;28;24441;-77
2023/08/25 04:39:48;;;;;;;3.40;2.27;;;;;;;18.62;100.00;95440.38;4976997;28;24438;-77
2023/08/25 04:42:15;;;;;;;3.97;2.10;;;;;;;18.56;100.00;95446.22;4972011;28;24973;-77
2023/08/25 04:44:42;;;;;;;6.20;2.15;;;;;;;18.58;100.00;95443.47;4971562;28;24456;-76
2023/08/25 04:47:08;;;;;;;4.28;2.22;;;;;;;18.52;100.00;95449.31;4982611;28;24813;-77
2023/08/25 04:49:36;;;;;;;5.85;2.22;;;;;;;18.52;100.00;95446.69;4975637;28;24446;-77
2023/08/25 04:52:03;;;;;;;4.80;2.42;;;;;;;18.47;100.00;95431.44;4984852;28;24444;-77
2023/08/25 04:54:29;;;;;;;3.20;2.10;;;;;;;18.46;100.00;95429.75;4984485;28;24437;-77
2023/08/25 04:56:56;;;;;;;4.45;2.15;;;;;;;18.38;100.00;95419.22;4971229;28;24962;-77
2023/08/25 04:59:24;;;;;;;4.55;2.30;;;;;;;18.43;100.00;95414.34;4971465;28;24433;-77
2023/08/25 05:01:51;;;;;;;4.68;2.00;;;;;;;18.51;100.00;95408.34;4971813;28;24425;-79
2023/08/25 05:04:17;;;;;;;5.05;2.40;;;;;;;18.46;100.00;95414.03;4983008;28;24813;-77
2023/08/25 05:06:45;;;;;;;4.20;2.10;;;;;;;18.56;100.00;95422.63;4985308;28;24444;-78
2023/08/25 05:09:12;;;;;;;5.20;2.30;;;;;;;18.53;100.00;95412.44;4973580;28;24988;-79
2023/08/25 05:11:39;;;;;;;5.13;2.25;;;;;;;18.56;100.00;95409.50;4973859;28;24437;-78
2023/08/25 05:14:05;;;;;;;7.63;2.50;;;;;;;18.70;100.00;95402.06;4973484;28;24428;-79
2023/08/25 05:16:32;;;;;;;9.07;2.42;;;;;;;18.79;100.00;95401.97;4973073;28;24491;-79
2023/08/25 05:18:58;;;;;;;3.83;2.40;;;;;;;18.92;100.00;95398.13;4981419;28;24953;-79
2023/08/25 05:21:25;;;;;;;2.20;1.88;;;;;;;19.03;100.00;95390.78;4992365;28;24412;-78
2023/08/25 05:24:17;;;;;;;6.20;2.25;;;;;;;19.20;100.00;95389.03;4992043;28;24817;-79
2023/08/25 05:26:44;;;;;;;3.78;1.95;;;;;;;19.32;100.00;95405.34;4992114;28;24963;-79
2023/08/25 05:29:10;;;;;;;3.88;2.15;;;;;;;19.41;100.00;95422.75;4990866;28;24437;-79
2023/08/25 05:31:37;;;;;;;6.35;2.42;;;;;;;19.32;100.00;95440.28;4991515;28;24437;-79
2023/08/25 05:34:04;;;;;;;6.57;2.63;;;;;;;19.30;100.00;95444.06;4984646;28;24794;-77
2023/08/25 05:36:30;;;;;;;4.07;2.35;;;;;;;19.16;100.00;95452.50;4980981;28;24433;-78
2023/08/25 05:38:57;;;;;;;5.45;2.75;;;;;;;19.14;100.00;95472.88;4972420;28;24429;-78
2023/08/25 05:41:25;;;;;;;4.50;2.37;;;;;;;19.18;100.00;95487.31;4986170;28;24963;-79
2023/08/25 05:43:51;;;;;;;6.65;2.40;;;;;;;19.20;100.00;95498.47;4990872;28;24448;-79
2023/08/25 05:46:18;;;;;;;3.15;2.10;;;;;;;19.20;100.00;95508.97;4991101;28;24413;-78
2023/08/25 05:48:44;;;;;;;5.53;2.45;;;;;;;19.16;100.00;95515.50;4991414;28;24475;-79
2023/08/25 05:51:11;;;;;;;6.13;2.60;;;;;;;19.07;100.00;95504.97;4974289;28;24437;-78
2023/08/25 05:53:37;;;;;;;6.53;2.38;;;;;;;19.01;100.00;95512.63;4972050;28;24440;-77
2023/08/25 05:56:04;;;;;;;4.00;2.53;;;;;;;18.93;100.00;95552.78;4971867;28;24414;-79
2023/08/25 05:58:32;;;;;;;4.88;2.58;;;;;;;19.10;100.00;95632.47;4980255;28;24445;-80
2023/08/25 06:00:59;;;;;;;13.00;2.67;;;;;;;19.08;100.00;95671.97;4988268;28;25019;-79
2023/08/25 06:03:25;;;;;;;6.40;2.63;;;;;;;19.15;100.00;95713.38;4981523;28;24444;-78
2023/08/25 06:05:53;;;;;;;6.47;2.45;;;;;;;19.12;100.00;95704.00;4982627;28;24440;-79
2023/08/25 06:08:20;;;;;;;9.80;2.85;;;;;;;19.47;100.00;95676.91;4991152;28;24427;-78
2023/08/25 06:10:46;;;;;;;5.40;3.00;;;;;;;19.49;100.00;95693.31;4991072;28;24866;-78
2023/08/25 06:13:13;;;;;;;13.45;3.08;;;;;;;19.61;100.00;95717.53;4991081;28;24988;-78
2023/08/25 06:15:41;;;;;;;5.13;2.70;;;;;;;19.62;100.00;95710.50;4990916;28;24409;-79
2023/08/25 06:18:07;;;;;;;5.32;3.15;;;;;;;19.67;100.00;95687.22;4973069;28;24437;-79
2023/08/25 06:20:35;;;;;;;10.45;3.05;;;;;;;19.65;100.00;95671.59;4971372;28;24425;-75
2023/08/25 06:23:02;;;;;;;5.03;2.50;;;;;;;19.68;100.00;95667.84;4977464;28;24853;-79
2023/08/25 06:25:28;;;;;;;5.15;2.85;;;;;;;19.56;100.00;95660.19;4990789;28;24552;-79
2023/08/25 06:27:55;;;;;;;4.22;2.60;;;;;;;19.58;100.00;95674.03;4990518;28;24944;-79
2023/08/25 06:30:21;;;;;;;4.05;2.33;;;;;;;19.51;100.00;95693.19;4990658;28;24439;-79
2023/08/25 06:32:49;;;;;;;4.93;2.60;;;;;;;19.40;100.00;95696.06;4980784;28;24445;-78
2023/08/25 06:35:16;;;;;;;3.75;2.60;;;;;;;19.41;100.00;95687.19;4978617;28;24754;-77
2023/08/25 06:37:42;;;;;;;4.37;2.50;;;;;;;19.32;100.00;95683.69;4977653;28;25049;-77
2023/08/25 06:40:10;;;;;;;6.13;2.00;;;;;;;19.38;100.00;95669.91;4975870;28;24425;-77
2023/08/25 06:42:38;;;;;;;4.55;1.92;;;;;;;19.18;100.00;95695.53;4971974;28;24500;-77
2023/08/25 06:45:05;;;;;;;5.40;2.00;;;;;;;19.23;100.00;95698.53;4971918;28;24449;-78
2023/08/25 06:47:34;;;;;;;3.50;2.10;;;;;;;19.21;100.00;95687.38;4973586;28;24425;-78
2023/08/25 06:50:02;;;;;;;4.20;2.17;;;;;;;19.34;100.00;95681.72;4994235;28;24452;-78
2023/08/25 06:52:28;;;;;;;3.23;2.10;;;;;;;19.77;100.00;95661.69;4995513;28;24471;-78
2023/08/25 06:54:55;;;;;;;2.33;1.75;;;;;;;19.75;100.00;95653.13;4979791;28;24448;-76
2023/08/25 06:57:22;;;;;;;4.82;2.10;;;;;;;19.22;100.00;95659.31;4986625;28;24433;-78
2023/08/25 06:59:48;;;;;;;5.35;2.28;;;;;;;19.00;100.00;95685.03;4999423;28;24429;-78
2023/08/25 07:02:15;;;;;;;4.03;1.92;;;;;;;19.07;100.00;95670.34;4996531;28;24432;-79
2023/08/25 07:04:41;;;;;;;3.23;2.00;;;;;;;19.12;100.00;95667.25;4994424;28;24480;-79
2023/08/25 07:07:09;;;;;;;2.97;1.90;;;;;;;19.13;100.00;95679.41;4996026;28;24959;-80
2023/08/25 07:09:36;;;;;;;2.83;1.83;;;;;;;19.15;100.00;95693.22;4989538;28;24611;-79
2023/08/25 07:12:04;;;;;;;3.03;2.03;;;;;;;19.10;100.00;95732.22;4983272;28;24509;-80
2023/08/25 07:14:31;;;;;;;5.13;2.10;;;;;;;19.08;100.00;95763.84;4986968;28;24984;-80
2023/08/25 07:16:58;;;;;;;3.67;2.63;;;;;;;18.97;100.00;95768.50;4984448;28;24438;-78
2023/08/25 07:19:24;;;;;;;3.47;2.60;;;;;;;18.90;100.00;95776.13;4982839;28;24441;-78
2023/08/25 07:21:51;;;;;;;4.23;2.80;;;;;;;18.81;100.00;95782.28;4983910;28;24425;-79
2023/08/25 07:24:20;;;;;;;6.00;2.40;;;;;;;18.83;100.00;95786.38;4982991;28;24576;-78
2023/08/25 07:26:47;;;;;;;4.38;2.58;;;;;;;18.92;100.00;95776.00;4992085;28;24433;-78
2023/08/25 07:29:13;;;;;;;3.90;2.40;;;;;;;18.74;100.00;95765.47;4986074;28;24437;-80
2023/08/25 07:31:40;;;;;;;2.58;2.15;;;;;;;18.69;100.00;95746.66;4987712;28;24980;-81
2023/08/25 07:34:06;;;;;;;4.78;2.72;;;;;;;18.61;100.00;95750.88;4998322;28;24521;-80
2023/08/25 07:36:33;;;;;;;3.67;2.33;;;;;;;18.61;100.00;95760.50;4997395;28;24425;-82
2023/08/25 07:39:05;;;;;;;3.90;2.50;;;;;;;18.62;100.00;95785.78;4996303;28;24528;-81
2023/08/25 07:41:36;;;;;;;4.72;2.05;;;;;;;18.63;100.00;95801.38;5002363;28;24436;-81
2023/08/25 07:44:03;;;;;;;4.07;2.17;;;;;;;18.70;100.00;95793.75;4994881;28;25011;-80
2023/08/25 07:46:33;;;;;;;4.00;2.30;;;;;;;18.73;100.00;95798.75;4991977;28;24782;-81
2023/08/25 07:49:00;;;;;;;3.03;2.10;;;;;;;18.76;100.00;95800.22;5000409;28;24443;-80
2023/08/25 07:51:26;;;;;;;4.15;2.55;;;;;;;18.74;100.00;95792.50;4994768;28;24425;-78
2023/08/25 07:53:53;;;;;;;3.40;2.08;;;;;;;18.81;100.00;95769.97;4993608;28;24429;-77
2023/08/25 07:56:20;;;;;;;2.95;1.92;;;;;;;18.82;100.00;95765.53;4993615;28;24991;-82
2023/08/25 07:58:49;;;;;;;2.70;2.00;;;;;;;18.68;100.00;95774.69;4995528;28;24529;-82
2023/08/25 08:01:15;;;;;;;4.78;2.00;;;;;;;18.74;100.00;95766.28;4990890;28;24442;-82
2023/08/25 08:03:43;;;;;;;3.58;2.08;;;;;;;18.76;100.00;95776.63;4987427;28;24443;-82
2023/08/25 08:06:12;;;;;;;3.55;2.00;;;;;;;18.62;100.00;95770.06;4995783;28;24536;-81
2023/08/25 08:08:39;;;;;;;3.55;2.13;;;;;;;18.61;100.00;95784.13;4993418;28;24433;-78
2023/08/25 08:11:05;;;;;;;3.38;2.25;;;;;;;18.63;100.00;95769.91;4993624;28;24437;-77
2023/08/25 08:13:34;;;;;;;4.13;2.25;;;;;;;18.68;100.00;95784.38;4992904;28;24921;-78
2023/08/25 08:16:02;;;;;;;4.00;2.20;;;;;;;18.61;100.00;95760.50;4993845;28;24480;-79
2023/08/25 08:18:28;;;;;;;4.47;2.40;;;;;;;18.53;100.00;95756.00;4986691;28;24508;-78
2023/08/25 08:20:55;;;;;;;4.70;2.08;;;;;;;18.50;100.00;95745.81;4991052;28;24797;-79
2023/08/25 08:23:22;;;;;;;8.63;2.10;;;;;;;18.47;100.00;95726.94;4986456;28;24452;-79
2023/08/25 08:25:49;;;;;;;3.90;1.95;;;;;;;18.47;100.00;95709.38;4974202;28;24448;-79
2023/08/25 08:28:15;;;;;;;5.35;2.38;;;;;;;18.51;100.00;95695.00;4987533;28;24995;-78
2023/08/25 08:30:43;;;;;;;3.63;2.10;;;;;;;18.51;100.00;95660.09;4992859;28;24424;-79
2023/08/25 08:33:11;;;;;;;3.58;2.10;;;;;;;18.49;100.00;95633.19;4992698;28;25018;-78
2023/08/25 08:35:38;;;;;;;4.00;2.08;;;;;;;18.58;100.00;95612.13;4993461;28;24501;-78
2023/08/25 08:38:05;;;;;;;4.00;2.13;;;;;;;18.82;100.00;95608.94;4992528;28;24519;-79
2023/08/25 08:40:32;;;;;;;4.97;2.30;;;;;;;18.96;100.00;95594.47;4992318;28;24999;-78
2023/08/25 08:43:01;;;;;;;6.25;3.00;;;;;;;19.25;100.00;95591.56;4980974;28;24537;-79
2023/08/25 08:45:31;;;;;;;5.78;2.50;;;;;;;18.78;100.00;95565.63;4974234;28;24504;-78
2023/08/25 08:47:59;;;;;;;4.90;2.58;;;;;;;18.57;100.00;95546.72;4988478;28;24456;-80
2023/08/25 08:50:28;;;;;;;3.92;2.40;;;;;;;18.73;100.00;95567.88;4991631;28;24452;-79
2023/08/25 08:52:56;;;;;;;6.30;2.20;;;;;;;18.63;100.00;95606.44;4979787;28;24431;-79
2023/08/25 08:55:23;;;;;;;3.60;2.42;;;;;;;18.62;100.00;95623.97;4975526;28;24472;-79
2023/08/25 08:57:50;;;;;;;4.70;2.28;;;;;;;18.67;100.00;95618.28;4980190;28;25002;-77
2023/08/25 09:00:18;;;;;;;4.68;2.50;;;;;;;18.75;100.00;95607.06;4992016;28;24444;-77
2023/08/25 09:02:48;;;;;;;6.03;2.70;;;;;;;18.79;100.00;95606.59;4986799;28;24516;-78
2023/08/25 09:05:16;;;;;;;5.97;2.40;;;;;;;18.66;100.00;95592.22;4977891;28;24437;-80
2023/08/25 09:07:47;;;;;;;3.80;2.20;;;;;;;18.57;100.00;95584.25;4994143;28;24431;-79
2023/08/25 09:10:13;;;;;;;9.10;2.42;;;;;;;18.61;100.00;95587.38;4991048;28;24457;-79
2023/08/25 09:12:40;;;;;;;4.28;2.15;;;;;;;18.56;100.00;95587.03;4993415;28;24429;-80
2023/08/25 09:15:08;;;;;;;5.70;2.50;;;;;;;18.55;100.00;95580.16;4990978;28;24437;-79
2023/08/25 09:17:36;;;;;;;5.20;2.50;;;;;;;18.59;100.00;95558.69;4996020;28;24509;-78
2023/08/25 09:20:05;;;;;;;4.45;2.60;;;;;;;18.61;100.00;95554.16;4976120;28;24409;-80
2023/08/25 09:22:31;;;;;;;5.13;2.27;;;;;;;18.68;100.00;95564.00;4976349;28;24436;-80
2023/08/25 09:25:00;;;;;;;3.63;2.13;;;;;;;18.70;100.00;95568.16;4990545;28;24461;-81
2023/08/25 09:27:27;;;;;;;3.97;2.30;;;;;;;18.72;100.00;95565.38;4973214;28;24437;-81
2023/08/25 09:30:03;;;;;;;4.78;2.58;;;;;;;18.72;100.00;95574.06;4973489;28;24449;-80
2023/08/25 09:32:30;;;;;;;3.58;2.25;;;;;;;18.69;100.00;95573.53;4974238;28;24481;-81
2023/08/25 09:35:11;;;;;;;5.50;2.60;;;;;;;18.71;100.00;95567.19;4989275;28;24449;-80
2023/08/25 09:37:41;;;;;;;5.15;2.28;;;;;;;18.67;100.00;95572.88;4992397;28;24487;-81
2023/08/25 09:40:12;;;;;;;2.83;2.15;;;;;;;18.65;100.00;95572.19;4988198;28;24968;-80
2023/08/25 09:42:38;;;;;;;4.32;2.47;;;;;;;18.62;100.00;95579.41;4981272;28;25054;-82
2023/08/25 09:45:06;;;;;;;6.07;2.72;;;;;;;18.61;100.00;95583.00;4975166;28;25004;-79
2023/08/25 09:47:32;;;;;;;4.25;2.50;;;;;;;18.63;100.00;95590.69;4993653;28;24445;-80
2023/08/25 09:49:59;;;;;;;6.95;2.80;;;;;;;18.74;100.00;95601.00;4993404;28;24449;-80
2023/08/25 09:52:27;;;;;;;4.00;2.27;;;;;;;18.75;100.00;95593.94;4996210;28;24441;-80
2023/08/25 09:54:54;;;;;;;5.15;2.78;;;;;;;18.78;100.00;95596.28;4981240;28;25015;-79
2023/08/25 09:57:24;;;;;;;3.75;2.67;;;;;;;18.84;100.00;95588.63;4989699;28;24433;-79
2023/08/25 09:59:51;;;;;;;4.60;2.70;;;;;;;18.86;100.00;95596.34;4975764;28;24430;-78
2023/08/25 10:02:18;;;;;;;4.70;2.60;;;;;;;18.92;100.00;95589.69;4976913;28;24956;-79
2023/08/25 10:04:45;;;;;;;5.07;2.42;;;;;;;18.94;100.00;95585.91;4977367;28;24972;-78
2023/08/25 10:07:12;;;;;;;5.13;2.55;;;;;;;18.96;100.00;95578.72;4992764;28;24433;-80
2023/08/25 10:09:38;;;;;;;3.47;2.45;;;;;;;18.99;100.00;95573.16;4987006;28;24441;-79
2023/08/25 10:12:07;;;;;;;5.45;2.70;;;;;;;19.12;100.00;95561.44;4979451;28;24959;-78
2023/08/25 10:14:37;;;;;;;3.72;2.47;;;;;;;19.12;100.00;95567.50;4981864;28;24436;-78
2023/08/25 10:17:07;;;;;;;3.38;2.47;;;;;;;19.17;100.00;95580.16;4998045;28;24443;-79
2023/08/25 10:19:38;;;;;;;6.78;3.20;;;;;;;19.23;100.00;95582.19;5002574;28;24434;-78
2023/08/25 10:22:07;;;;;;;6.45;2.80;;;;;;;19.27;100.00;95586.13;5003703;28;24445;-79
2023/08/25 10:24:36;;;;;;;12.63;2.80;;;;;;;19.38;100.00;95585.06;5003150;28;24443;-79
2023/08/25 10:27:03;;;;;;;10.23;2.83;;;;;;;19.40;100.00;95596.25;4985330;28;24473;-79
2023/08/25 10:29:30;;;;;;;3.63;2.50;;;;;;;19.48;100.00;95602.38;4998263;28;24456;-79
2023/08/25 10:32:01;;;;;;;4.60;2.90;;;;;;;19.41;100.00;95598.72;4992129;28;24447;-78
2023/08/25 10:34:32;;;;;;;6.10;2.65;;;;;;;19.52;100.00;95605.50;5016454;28;24428;-81
2023/08/25 10:37:10;;;;;;;4.05;2.67;;;;;;;19.50;100.00;95605.66;4992058;28;24840;-78
2023/08/25 10:39:47;;;;;;;5.18;2.83;;;;;;;19.53;100.00;95609.78;4993171;28;24448;-79
2023/08/25 10:42:18;;;;;;;5.32;2.40;;;;;;;19.50;100.00;95599.56;5000151;28;24886;-79
2023/08/25 10:44:44;;;;;;;4.70;2.83;;;;;;;19.52;100.00;95592.38;4987592;28;24429;-79
2023/08/25 10:47:12;;;;;;;9.10;2.60;;;;;;;19.47;100.00;95586.78;4991988;28;24494;-78
2023/08/25 10:49:39;;;;;;;2.67;2.10;;;;;;;19.53;100.00;95580.88;4979821;28;24444;-81
2023/08/25 10:52:13;;;;;;;3.33;2.30;;;;;;;19.48;100.00;95593.66;4976762;28;24956;-80
2023/08/25 10:54:41;;;;;;;4.47;2.70;;;;;;;19.45;100.00;95586.91;4979343;28;24981;-80
2023/08/25 10:57:18;;;;;;;5.88;2.75;;;;;;;19.45;100.00;95573.78;4976047;28;24441;-80
2023/08/25 10:59:49;;;;;;;5.30;2.63;;;;;;;19.49;100.00;95575.13;4976722;28;24425;-80
2023/08/25 11:02:34;;;;;;;4.35;2.60;;;;;;;19.47;100.00;95561.34;4988004;28;24845;-81
2023/08/25 11:05:37;;;;;;;5.05;2.53;;;;;;;19.49;100.00;95572.50;4994628;28;24433;-81
2023/08/25 11:08:05;;;;;;;3.05;2.50;;;;;;;19.53;100.00;95570.38;4997168;28;24451;-81
2023/08/25 11:10:33;;;;;;;8.13;2.70;;;;;;;19.67;100.00;95553.25;4987621;28;24441;-82
2023/08/25 11:13:01;;;;;;;3.28;2.22;;;;;;;19.88;100.00;95566.81;4982530;28;24452;-82
2023/08/25 11:15:28;;;;;;;3.30;2.45;;;;;;;20.19;100.00;95572.31;4987104;28;25022;-82
2023/08/25 11:17:55;;;;;;;15.57;2.47;;;;;;;20.43;100.00;95573.34;4991882;28;24456;-82
2023/08/25 11:20:22;;;;;;;4.43;2.40;;;;;;;20.51;100.00;95574.22;4992034;28;24501;-82
2023/08/25 11:22:52;;;;;;;3.22;2.40;;;;;;;20.60;100.00;95585.59;4988620;28;24452;-82
2023/08/25 11:25:18;;;;;;;5.07;2.60;;;;;;;20.63;100.00;95566.03;4987511;28;24437;-82
2023/08/25 11:27:49;;;;;;;4.03;2.40;;;;;;;20.65;100.00;95574.56;4993334;28;24449;-81